createdAt,value
2018-01-11T00:01:59.982Z,7.90
2018-01-11T00:04:27.445Z,7.80
2018-01-11T00:06:54.916Z,7.60
2018-01-11T00:09:23.157Z,7.60
2018-01-11T00:11:50.632Z,7.60
2018-01-11T00:14:18.708Z,7.60
2018-01-11T00:16:46.232Z,7.60
2018-01-11T00:19:13.735Z,7.60
2018-01-11T00:21:42.184Z,7.50
2018-01-11T00:24:09.653Z,7.50
2018-01-11T00:26:37.277Z,7.50
2018-01-11T00:29:04.833Z,7.50
2018-01-11T00:31:32.306Z,7.50
2018-01-11T00:33:59.760Z,7.40
2018-01-11T00:36:27.230Z,7.50
2018-01-11T00:38:55.712Z,7.50
2018-01-11T00:41:23.180Z,7.40
2018-01-11T00:43:50.660Z,7.50
2018-01-11T00:46:18.976Z,7.60
2018-01-11T00:48:46.436Z,7.60
2018-01-11T00:51:13.895Z,7.60
2018-01-11T00:53:41.358Z,7.60
2018-01-11T00:56:09.709Z,7.50
2018-01-11T00:58:37.181Z,7.40
2018-01-11T01:01:04.749Z,7.40
2018-01-11T01:03:33.064Z,7.30
2018-01-11T01:06:00.517Z,7.20
2018-01-11T01:08:28.757Z,7.50
2018-01-11T01:10:56.212Z,7.50
2018-01-11T01:13:23.788Z,7.50
2018-01-11T01:15:51.248Z,7.40
2018-01-11T01:18:18.929Z,7.40
2018-01-11T01:20:46.435Z,7.40
2018-01-11T01:23:14.037Z,7.30
2018-01-11T01:25:41.689Z,7.20
2018-01-11T01:28:09.273Z,7.10
2018-01-11T01:30:36.728Z,7.20
2018-01-11T01:33:04.289Z,7.10
2018-01-11T01:35:31.757Z,7.00
2018-01-11T01:37:59.985Z,6.90
2018-01-11T01:40:27.462Z,6.90
2018-01-11T01:42:55.048Z,6.90
2018-01-11T01:45:23.346Z,7.20
2018-01-11T01:47:51.795Z,7.20
2018-01-11T01:50:19.261Z,7.30
2018-01-11T01:52:47.505Z,7.40
2018-01-11T01:55:14.980Z,7.30
2018-01-11T01:57:42.437Z,7.40
2018-01-11T02:00:10.012Z,7.30
2018-01-11T02:02:38.232Z,7.30
2018-01-11T02:05:05.781Z,7.30
2018-01-11T02:07:33.368Z,7.30
2018-01-11T02:10:00.828Z,7.30
2018-01-11T02:12:28.305Z,7.10
2018-01-11T02:14:55.774Z,7.10
2018-01-11T02:17:24.945Z,7.00
2018-01-11T02:19:52.409Z,7.00
2018-01-11T02:22:20.880Z,6.90
2018-01-11T02:24:48.344Z,6.90
2018-01-11T02:27:15.830Z,6.90
2018-01-11T02:29:44.049Z,7.20
2018-01-11T02:32:11.526Z,7.20
2018-01-11T02:34:38.984Z,7.30
2018-01-11T02:37:06.557Z,7.30
2018-01-11T02:39:34.002Z,7.20
2018-01-11T02:42:01.477Z,7.20
2018-01-11T02:44:29.693Z,7.30
2018-01-11T02:46:57.157Z,7.30
2018-01-11T02:49:24.668Z,7.20
2018-01-11T02:51:52.376Z,7.10
2018-01-11T02:54:19.846Z,7.10
2018-01-11T02:56:51.185Z,7.20
2018-01-11T02:59:18.645Z,7.30
2018-01-11T03:01:46.604Z,7.30
2018-01-11T03:04:14.108Z,7.20
2018-01-11T03:06:42.432Z,7.30
2018-01-11T03:09:11.511Z,7.30
2018-01-11T03:11:39.089Z,7.20
2018-01-11T03:14:06.650Z,7.10
2018-01-11T03:16:34.108Z,7.00
2018-01-11T03:19:02.585Z,6.90
2018-01-11T03:21:30.177Z,7.00
2018-01-11T03:23:57.625Z,7.00
2018-01-11T03:26:25.116Z,7.10
2018-01-11T03:28:52.570Z,7.20
2018-01-11T03:31:20.805Z,7.30
2018-01-11T03:33:48.257Z,7.30
2018-01-11T03:36:15.726Z,7.40
2018-01-11T03:38:43.176Z,7.40
2018-01-11T03:41:10.662Z,7.50
2018-01-11T03:43:38.984Z,7.50
2018-01-11T03:46:07.431Z,7.60
2018-01-11T03:48:36.912Z,7.60
2018-01-11T03:51:04.386Z,7.70
2018-01-11T03:53:31.861Z,7.70
2018-01-11T03:56:00.088Z,7.70
2018-01-11T03:58:27.578Z,7.60
2018-01-11T04:00:55.032Z,7.70
2018-01-11T04:03:22.494Z,7.70
2018-01-11T04:05:50.720Z,7.60
2018-01-11T04:08:18.193Z,7.60
2018-01-11T04:10:46.545Z,7.70
2018-01-11T04:13:14.005Z,7.70
2018-01-11T04:15:41.512Z,7.70
2018-01-11T04:18:09.015Z,7.60
2018-01-11T04:20:38.168Z,7.50
2018-01-11T04:23:06.473Z,7.50
2018-01-11T04:25:33.947Z,7.50
2018-01-11T04:28:01.988Z,7.40
2018-01-11T04:30:30.218Z,7.30
2018-01-11T04:32:58.624Z,7.30
2018-01-11T04:35:27.093Z,7.30
2018-01-11T04:37:54.549Z,7.30
2018-01-11T04:40:23.720Z,7.20
2018-01-11T04:42:51.189Z,7.20
2018-01-11T04:45:19.528Z,7.30
2018-01-11T04:47:47.005Z,7.20
2018-01-11T04:50:14.588Z,7.30
2018-01-11T04:52:42.210Z,7.40
2018-01-11T04:55:10.609Z,7.40
2018-01-11T04:57:38.068Z,7.40
2018-01-11T05:00:05.533Z,7.50
2018-01-11T05:02:32.991Z,7.50
2018-01-11T05:05:00.460Z,7.50
2018-01-11T05:07:27.920Z,7.40
2018-01-11T05:09:55.389Z,7.40
2018-01-11T05:12:22.844Z,7.20
2018-01-11T05:14:50.309Z,7.20
2018-01-11T05:17:17.772Z,7.10
2018-01-11T05:19:46.017Z,7.10
2018-01-11T05:22:13.496Z,7.10
2018-01-11T05:24:42.456Z,6.90
2018-01-11T05:27:09.929Z,7.00
2018-01-11T05:29:37.392Z,6.90
2018-01-11T05:32:04.876Z,6.90
2018-01-11T05:34:34.261Z,6.90
2018-01-11T05:37:01.683Z,6.90
2018-01-11T05:39:29.352Z,6.90
2018-01-11T05:41:56.816Z,6.90
2018-01-11T05:44:25.044Z,6.90
2018-01-11T05:46:52.512Z,6.80
2018-01-11T05:49:19.977Z,6.90
2018-01-11T05:51:47.508Z,6.90
2018-01-11T05:54:14.993Z,7.00
2018-01-11T05:56:43.344Z,7.10
2018-01-11T05:59:10.834Z,7.10
2018-01-11T06:01:38.287Z,7.10
2018-01-11T06:04:05.892Z,7.10
2018-01-11T06:06:34.116Z,7.20
2018-01-11T06:09:01.596Z,7.20
2018-01-11T06:11:29.944Z,7.10
2018-01-11T06:13:57.562Z,7.10
2018-01-11T06:16:25.026Z,7.20
2018-01-11T06:18:54.113Z,7.30
2018-01-11T06:21:22.340Z,7.40
2018-01-11T06:23:49.801Z,7.30
2018-01-11T06:26:17.271Z,7.40
2018-01-11T06:28:45.487Z,7.30
2018-01-11T06:31:13.861Z,7.30
2018-01-11T06:33:42.152Z,7.30
2018-01-11T06:36:10.452Z,7.30
2018-01-11T06:38:37.921Z,7.30
2018-01-11T06:41:05.384Z,7.30
2018-01-11T06:43:33.797Z,7.30
2018-01-11T06:46:02.093Z,7.40
2018-01-11T06:48:29.673Z,7.40
2018-01-11T06:50:57.132Z,7.40
2018-01-11T06:53:24.599Z,7.50
2018-01-11T06:55:52.074Z,7.50
2018-01-11T06:58:19.520Z,7.50
2018-01-11T07:00:46.998Z,7.50
2018-01-11T07:03:14.469Z,7.50
2018-01-11T07:05:43.717Z,7.50
2018-01-11T07:08:11.229Z,7.40
2018-01-11T07:10:39.469Z,7.50
2018-01-11T07:13:06.942Z,7.50
2018-01-11T07:15:34.404Z,7.40
2018-01-11T07:18:01.884Z,7.40
2018-01-11T07:20:29.481Z,7.40
2018-01-11T07:22:57.001Z,7.40
2018-01-11T07:25:24.430Z,7.50
2018-01-11T07:27:51.900Z,7.40
2018-01-11T07:30:19.372Z,7.40
2018-01-11T07:32:47.605Z,7.60
2018-01-11T07:35:15.068Z,7.50
2018-01-11T07:37:42.564Z,7.60
2018-01-11T07:40:10.806Z,7.70
2018-01-11T07:42:39.112Z,7.70
2018-01-11T07:45:07.351Z,7.90
2018-01-11T07:47:34.815Z,7.90
2018-01-11T07:50:02.288Z,8.00
2018-01-11T07:52:32.033Z,8.00
2018-01-11T07:54:59.625Z,8.00
2018-01-11T07:57:27.661Z,8.20
2018-01-11T07:59:55.122Z,8.20
2018-01-11T08:02:22.667Z,8.30
2018-01-11T08:04:50.933Z,8.30
2018-01-11T08:07:19.173Z,8.40
2018-01-11T08:09:46.639Z,8.40
2018-01-11T08:12:14.713Z,8.50
2018-01-11T08:14:43.041Z,8.50
2018-01-11T08:17:10.521Z,8.50
2018-01-11T08:19:38.042Z,8.50
2018-01-11T08:22:06.291Z,8.40
2018-01-11T08:24:33.773Z,8.40
2018-01-11T08:27:02.222Z,8.40
2018-01-11T08:29:29.676Z,8.40
2018-01-11T08:31:57.161Z,8.30
2018-01-11T08:34:25.396Z,8.40
2018-01-11T08:36:52.856Z,8.30
2018-01-11T08:39:20.341Z,8.40
2018-01-11T08:41:48.643Z,8.50
2018-01-11T08:44:17.133Z,8.40
2018-01-11T08:46:44.604Z,8.50
2018-01-11T08:49:12.097Z,8.50
2018-01-11T08:51:39.573Z,8.50
2018-01-11T08:54:07.857Z,8.60
2018-01-11T08:56:36.203Z,8.60
2018-01-11T08:59:03.674Z,8.50
2018-01-11T09:01:31.278Z,8.50
2018-01-11T09:04:00.884Z,8.50
2018-01-11T09:06:28.356Z,8.50
2018-01-11T09:08:55.851Z,8.50
2018-01-11T09:11:23.316Z,8.50
2018-01-11T09:13:51.548Z,8.60
2018-01-11T09:16:19.018Z,8.60
2018-01-11T09:18:46.487Z,8.60
2018-01-11T09:21:14.942Z,8.60
2018-01-11T09:23:42.427Z,8.60
2018-01-11T09:26:09.900Z,8.60
2018-01-11T09:28:38.128Z,8.70
2018-01-11T09:31:06.542Z,8.60
2018-01-11T09:33:34.999Z,8.70
2018-01-11T09:36:02.584Z,8.70
2018-01-11T09:38:30.095Z,8.80
2018-01-11T09:40:57.730Z,8.80
2018-01-11T09:43:25.285Z,8.70
2018-01-11T09:45:54.353Z,8.70
2018-01-11T09:48:21.836Z,8.70
2018-01-11T09:50:50.092Z,8.80
2018-01-11T09:53:17.561Z,8.80
2018-01-11T09:55:45.785Z,8.90
2018-01-11T09:58:13.257Z,8.80
2018-01-11T10:00:40.732Z,8.90
2018-01-11T10:03:08.200Z,8.90
2018-01-11T10:05:36.655Z,8.90
2018-01-11T10:08:05.170Z,8.90
2018-01-11T10:10:33.424Z,8.90
2018-01-11T10:13:00.888Z,8.90
2018-01-11T10:15:28.376Z,8.90
2018-01-11T10:17:55.836Z,9.00
2018-01-11T10:20:23.324Z,9.00
2018-01-11T10:22:50.789Z,9.00
2018-01-11T10:25:18.271Z,9.10
2018-01-11T10:27:45.802Z,9.10
2018-01-11T10:30:13.337Z,9.10
2018-01-11T10:32:40.912Z,9.20
2018-01-11T10:35:09.405Z,9.10
2018-01-11T10:37:36.872Z,9.20
2018-01-11T10:40:04.365Z,9.20
2018-01-11T10:42:32.593Z,9.20
2018-01-11T10:45:01.053Z,9.20
2018-01-11T10:47:28.532Z,9.30
2018-01-11T10:49:56.003Z,9.40
2018-01-11T10:52:24.449Z,9.50
2018-01-11T10:54:51.925Z,9.50
2018-01-11T10:57:19.409Z,9.60
2018-01-11T10:59:46.859Z,9.60
2018-01-11T11:02:19.907Z,9.60
2018-01-11T11:04:48.235Z,9.70
2018-01-11T11:07:15.703Z,9.70
2018-01-11T11:09:43.945Z,9.80
2018-01-11T11:12:11.481Z,9.80
2018-01-11T11:14:38.952Z,9.80
2018-01-11T11:17:06.528Z,9.80
2018-01-11T11:19:34.025Z,9.80
2018-01-11T11:22:01.644Z,9.80
2018-01-11T11:24:29.189Z,9.90
2018-01-11T11:26:57.688Z,9.90
2018-01-11T11:29:25.241Z,9.80
2018-01-11T11:31:52.798Z,9.80
2018-01-11T11:34:20.272Z,9.90
2018-01-11T11:36:48.503Z,9.70
2018-01-11T11:39:15.985Z,9.70
2018-01-11T11:41:43.457Z,9.70
2018-01-11T11:44:11.680Z,9.60
2018-01-11T11:46:39.160Z,9.60
2018-01-11T11:49:07.546Z,9.60
2018-01-11T11:51:35.021Z,9.60
2018-01-11T11:54:02.496Z,9.60
2018-01-11T11:56:30.732Z,9.40
2018-01-11T11:58:58.189Z,9.40
2018-01-11T12:01:25.669Z,9.40
2018-01-11T12:03:53.124Z,9.40
2018-01-11T12:06:23.145Z,9.50
2018-01-11T12:08:50.622Z,9.50
2018-01-11T12:11:18.877Z,9.50
2018-01-11T12:13:48.109Z,9.60
2018-01-11T12:16:15.587Z,9.60
2018-01-11T12:18:43.045Z,9.70
2018-01-11T12:21:10.521Z,9.70
2018-01-11T12:23:38.824Z,9.70
2018-01-11T12:26:07.068Z,9.80
2018-01-11T12:28:35.481Z,9.80
2018-01-11T12:31:03.717Z,10.00
2018-01-11T12:33:31.333Z,10.00
2018-01-11T12:35:58.806Z,10.00
2018-01-11T12:38:26.322Z,10.10
2018-01-11T12:40:53.792Z,10.10
2018-01-11T12:43:22.909Z,10.30
2018-01-11T12:45:50.387Z,10.30
2018-01-11T12:48:17.875Z,10.60
2018-01-11T12:50:45.351Z,10.70
2018-01-11T12:53:12.836Z,10.70
2018-01-11T12:55:40.316Z,10.80
2018-01-11T12:58:07.793Z,10.80
2018-01-11T13:00:35.270Z,10.60
2018-01-11T13:03:03.654Z,10.60
2018-01-11T13:05:31.136Z,10.50
2018-01-11T13:07:59.369Z,10.40
2018-01-11T13:10:27.721Z,10.40
2018-01-11T13:12:55.176Z,10.30
2018-01-11T13:15:22.678Z,10.40
2018-01-11T13:17:50.144Z,10.30
2018-01-11T13:20:20.361Z,10.30
2018-01-11T13:22:48.265Z,10.30
2018-01-11T13:25:15.763Z,10.20
2018-01-11T13:27:43.254Z,10.10
2018-01-11T13:30:11.488Z,10.10
2018-01-11T13:32:38.970Z,10.10
2018-01-11T13:35:06.432Z,10.10
2018-01-11T13:37:34.674Z,10.00
2018-01-11T13:40:02.146Z,10.00
2018-01-11T13:42:29.640Z,10.00
2018-01-11T13:44:57.909Z,10.00
2018-01-11T13:47:27.300Z,10.00
2018-01-11T13:49:55.547Z,9.90
2018-01-11T13:52:23.028Z,10.00
2018-01-11T13:54:50.548Z,10.00
2018-01-11T13:57:18.027Z,9.90
2018-01-11T13:59:45.544Z,9.90
2018-01-11T14:02:13.907Z,9.90
2018-01-11T14:04:41.400Z,9.90
2018-01-11T14:07:08.882Z,9.90
2018-01-11T14:09:36.364Z,9.90
2018-01-11T14:12:05.460Z,9.90
2018-01-11T14:14:33.697Z,9.90
2018-01-11T14:17:01.181Z,9.90
2018-01-11T14:19:28.690Z,9.90
2018-01-11T14:21:57.177Z,9.90
2018-01-11T14:24:24.654Z,10.00
2018-01-11T14:26:52.162Z,10.00
2018-01-11T14:29:21.485Z,10.00
2018-01-11T14:31:49.056Z,10.00
2018-01-11T14:34:16.603Z,10.00
2018-01-11T14:36:45.736Z,9.90
2018-01-11T14:39:13.309Z,9.80
2018-01-11T14:41:40.792Z,9.80
2018-01-11T14:44:08.276Z,9.70
2018-01-11T14:46:35.760Z,9.70
2018-01-11T14:49:03.234Z,9.60
2018-01-11T14:51:31.560Z,9.60
2018-01-11T14:53:59.093Z,9.50
2018-01-11T14:56:26.529Z,9.60
2018-01-11T14:58:54.004Z,9.50
2018-01-11T15:01:23.230Z,9.50
2018-01-11T15:03:50.997Z,9.50
2018-01-11T15:06:18.456Z,9.50
2018-01-11T15:08:45.966Z,9.60
2018-01-11T15:11:14.204Z,9.50
2018-01-11T15:13:41.704Z,9.60
2018-01-11T15:16:09.942Z,9.40
2018-01-11T15:18:37.450Z,9.30
2018-01-11T15:21:05.687Z,9.40
2018-01-11T15:23:33.158Z,9.40
2018-01-11T15:26:01.381Z,9.40
2018-01-11T15:28:28.862Z,9.50
2018-01-11T15:30:56.359Z,9.40
2018-01-11T15:33:24.596Z,9.40
2018-01-11T15:35:52.069Z,9.40
2018-01-11T15:38:19.548Z,9.40
2018-01-11T15:40:47.807Z,9.30
2018-01-11T15:43:16.040Z,9.30
2018-01-11T15:45:43.521Z,9.30
2018-01-11T15:48:11.478Z,9.30
2018-01-11T15:50:38.972Z,9.30
2018-01-11T15:53:07.302Z,9.30
2018-01-11T15:55:34.794Z,9.40
2018-01-11T15:58:02.528Z,9.40
2018-01-11T16:00:30.288Z,9.40
2018-01-11T16:02:58.086Z,9.40
2018-01-11T16:05:26.565Z,9.40
2018-01-11T16:07:54.046Z,9.20
2018-01-11T16:10:22.296Z,9.30
2018-01-11T16:12:50.709Z,9.30
2018-01-11T16:15:19.013Z,9.30
2018-01-11T16:17:46.493Z,9.30
2018-01-11T16:40:11.498Z,9.30
2018-01-11T16:42:39.021Z,9.30
2018-01-11T16:45:06.630Z,9.30
2018-01-11T16:47:34.883Z,9.30
2018-01-11T16:50:02.557Z,9.30
2018-01-11T16:52:30.786Z,9.30
2018-01-11T16:54:58.453Z,9.20
2018-01-11T16:57:25.967Z,9.20
2018-01-11T16:59:54.227Z,9.20
2018-01-11T17:02:21.689Z,9.20
2018-01-11T17:04:50.652Z,9.20
2018-01-11T17:07:18.122Z,9.20
2018-01-11T17:09:45.602Z,9.20
2018-01-11T17:12:13.833Z,9.20
2018-01-11T17:14:41.309Z,9.20
2018-01-11T17:17:08.933Z,9.20
2018-01-11T17:19:36.533Z,9.20
2018-01-11T17:22:04.011Z,9.10
2018-01-11T17:24:31.534Z,9.10
2018-01-11T17:26:59.003Z,9.10
2018-01-11T17:29:26.492Z,9.10
2018-01-11T17:31:54.743Z,9.00
2018-01-11T17:34:22.281Z,9.00
2018-01-11T17:36:49.977Z,9.00
2018-01-11T17:39:18.228Z,9.00
2018-01-11T17:41:46.415Z,9.00
2018-01-11T17:44:13.909Z,9.10
2018-01-11T17:46:41.385Z,9.20
2018-01-11T17:49:08.854Z,9.20
2018-01-11T17:51:36.444Z,9.20
2018-01-11T17:54:03.978Z,9.20
2018-01-11T17:56:31.486Z,9.10
2018-01-11T17:58:59.759Z,9.10
2018-01-11T18:01:28.021Z,9.10
2018-01-11T18:03:56.269Z,9.00
2018-01-11T18:06:23.786Z,9.10
2018-01-11T18:08:52.004Z,9.00
2018-01-11T18:11:19.489Z,9.00
2018-01-11T18:13:47.743Z,9.00
2018-01-11T18:16:15.209Z,9.00
2018-01-11T18:18:42.734Z,9.00
2018-01-11T18:21:10.290Z,9.00
2018-01-11T18:23:37.926Z,9.00
2018-01-11T18:26:05.523Z,8.90
2018-01-11T18:28:33.208Z,8.90
2018-01-11T18:31:00.757Z,8.80
2018-01-11T18:33:28.292Z,8.80
2018-01-11T18:35:56.197Z,8.80
2018-01-11T18:38:23.807Z,8.80
2018-01-11T18:40:51.312Z,8.80
2018-01-11T18:43:18.918Z,8.80
2018-01-11T18:45:46.408Z,8.80
2018-01-11T18:48:14.008Z,8.80
2018-01-11T18:50:42.249Z,8.80
2018-01-11T18:53:09.782Z,8.80
2018-01-11T18:55:37.634Z,8.80
2018-01-11T18:58:05.100Z,8.80
2018-01-11T19:00:32.578Z,8.80
2018-01-11T19:03:00.106Z,8.90
2018-01-11T19:05:27.571Z,8.80
2018-01-11T19:07:55.054Z,8.70
2018-01-11T19:10:22.521Z,8.70
2018-01-11T19:12:50.005Z,8.80
2018-01-11T19:15:18.286Z,8.80
2018-01-11T19:17:46.543Z,8.80
2018-01-11T19:20:14.785Z,8.80
2018-01-11T19:22:42.252Z,8.80
2018-01-11T19:25:09.748Z,8.80
2018-01-11T19:27:38.062Z,8.80
2018-01-11T19:30:05.585Z,8.70
2018-01-11T19:32:33.823Z,8.70
2018-01-11T19:35:01.306Z,8.70
2018-01-11T19:37:29.533Z,8.70
2018-01-11T19:39:57.022Z,8.70
2018-01-11T19:42:24.994Z,8.60
2018-01-11T19:44:52.486Z,8.70
2018-01-11T19:47:19.945Z,8.70
2018-01-11T19:49:47.429Z,8.70
2018-01-11T19:52:14.941Z,8.70
2018-01-11T19:54:47.185Z,8.80
2018-01-11T19:57:14.655Z,8.80
2018-01-11T19:59:43.641Z,8.80
2018-01-11T20:02:11.185Z,8.80
2018-01-11T20:04:38.762Z,8.70
2018-01-11T20:07:06.226Z,8.70
2018-01-11T20:09:34.471Z,8.80
2018-01-11T20:12:02.196Z,8.80
2018-01-11T20:14:30.292Z,8.80
2018-01-11T20:16:57.794Z,8.80
2018-01-11T20:19:25.363Z,8.70
2018-01-11T20:21:53.621Z,8.70
2018-01-11T20:24:21.181Z,8.70
2018-01-11T20:26:48.660Z,8.70
2018-01-11T20:29:16.909Z,8.70
2018-01-11T20:31:44.383Z,8.70
2018-01-11T20:34:12.717Z,8.60
2018-01-11T20:36:40.321Z,8.50
2018-01-11T20:39:08.594Z,8.50
2018-01-11T20:41:36.054Z,8.50
2018-01-11T20:44:04.320Z,8.60
2018-01-11T20:46:32.586Z,8.60
2018-01-11T20:49:00.084Z,8.50
2018-01-11T20:51:27.674Z,8.50
2018-01-11T20:53:55.316Z,8.50
2018-01-11T20:56:22.801Z,8.50
2018-01-11T20:58:50.315Z,8.40
2018-01-11T21:01:18.266Z,8.50
2018-01-11T21:03:46.535Z,8.40
2018-01-11T21:06:14.004Z,8.50
2018-01-11T21:08:42.259Z,8.40
2018-01-11T21:11:09.910Z,8.40
2018-01-11T21:13:37.437Z,8.40
2018-01-11T21:16:04.957Z,8.30
2018-01-11T21:18:33.218Z,8.10
2018-01-11T21:21:00.809Z,8.10
2018-01-11T21:23:28.359Z,8.10
2018-01-11T21:25:56.697Z,8.20
2018-01-11T21:28:24.228Z,8.10
2018-01-11T21:30:51.796Z,8.10
2018-01-11T21:33:19.366Z,8.10
2018-01-11T21:35:46.868Z,8.10
2018-01-11T21:38:15.108Z,8.10
2018-01-11T21:40:42.705Z,8.10
2018-01-11T21:43:10.997Z,8.10
2018-01-11T21:45:38.542Z,8.10
2018-01-11T21:48:06.818Z,8.00
2018-01-11T21:50:35.125Z,8.10
2018-01-11T21:53:02.609Z,8.00
2018-01-11T21:55:30.185Z,8.10
2018-01-11T21:57:57.737Z,8.00
2018-01-11T22:00:25.329Z,8.10
2018-01-11T22:02:53.626Z,8.00
2018-01-11T22:05:21.286Z,8.00
2018-01-11T22:07:48.852Z,7.90
2018-01-11T22:10:16.339Z,8.00
2018-01-11T22:12:43.801Z,8.00
2018-01-11T22:15:11.281Z,8.00
2018-01-11T22:17:39.511Z,7.80
2018-01-11T22:20:07.021Z,7.80
2018-01-11T22:22:35.259Z,7.70
2018-01-11T22:25:02.769Z,7.70
2018-01-11T22:27:30.234Z,7.60
2018-01-11T22:29:57.726Z,7.60
2018-01-11T22:32:25.194Z,7.60
2018-01-11T22:34:52.683Z,7.60
2018-01-11T22:37:20.927Z,7.60
2018-01-11T22:39:48.393Z,7.60
2018-01-11T22:42:15.895Z,7.60
2018-01-11T22:44:43.421Z,7.60
2018-01-11T22:47:12.420Z,7.70
2018-01-11T22:49:40.730Z,7.60
2018-01-11T22:52:08.200Z,7.70
2018-01-11T22:54:35.673Z,7.60
2018-01-11T22:57:03.149Z,7.60
2018-01-11T22:59:30.655Z,7.60
2018-01-11T23:01:58.201Z,7.70
2018-01-11T23:04:26.500Z,7.50
2018-01-11T23:06:54.060Z,7.50
2018-01-11T23:09:21.594Z,7.50
2018-01-11T23:11:49.070Z,7.50
2018-01-11T23:14:16.555Z,7.50
2018-01-11T23:16:44.035Z,7.50
2018-01-11T23:19:11.545Z,7.50
2018-01-11T23:21:39.006Z,7.50
2018-01-11T23:24:06.483Z,7.50
2018-01-11T23:26:33.969Z,7.50
2018-01-11T23:29:01.610Z,7.60
2018-01-11T23:31:29.518Z,7.60
2018-01-11T23:33:56.993Z,7.60
2018-01-11T23:36:24.469Z,7.50
2018-01-11T23:38:51.937Z,7.50
2018-01-11T23:41:19.426Z,7.50
2018-01-11T23:43:46.893Z,7.50
2018-01-11T23:46:15.133Z,7.50
2018-01-11T23:48:42.596Z,7.50
2018-01-11T23:51:10.085Z,7.50
2018-01-11T23:53:38.352Z,7.50
2018-01-11T23:56:06.617Z,7.40
2018-01-11T23:58:35.130Z,7.40
